Aurora, Indiana
Current Conditions -  °F | °C
As of 7:52 AM on Thursday 30 Oct 2014 (Local Time) from KCVG Reporting Station
Few Clouds Few Clouds  
Wind Chill: 34°   Ceiling: Unl
Heat Index: 38°   Visibility: 10mi
Dew Point: 32°   Wind: 5mph
Humidity: 79%   Direction: 330°NNW
Pressure: 30.16"   Gusts: NA
Location:  39.06°N, 84.9°W
Report Text: KCVG 301152Z 33004KT 10SM FEW050 03/00 A3016 RMK AO2 SLP213 T00330000 10078 20022 51009 VISNO 36R $
Loading
Personal Weather Stations






























Interactive Weather Map
Tropical Storm Tracking
New forecast layout! Learn more

10-Day Weather Forecast

Advertisements
Track Severe Weather on mobile